createdAt,value
2022-11-29T00:01:40.575Z,34.80
2022-11-29T00:04:09.400Z,37.90
2022-11-29T00:06:37.501Z,37.90
2022-11-29T00:09:11.929Z,37.60
2022-11-29T00:12:00.670Z,35.00
2022-11-29T00:14:29.768Z,36.20
2022-11-29T00:17:02.589Z,34.70
2022-11-29T00:19:33.197Z,32.30
2022-11-29T00:22:01.898Z,34.60
2022-11-29T00:24:32.672Z,34.10
2022-11-29T00:27:01.452Z,37.50
2022-11-29T00:29:30.495Z,37.80
2022-11-29T00:31:58.766Z,39.50
2022-11-29T00:34:26.738Z,44.60
2022-11-29T00:36:55.120Z,40.30
2022-11-29T00:39:23.569Z,43.40
2022-11-29T00:41:51.464Z,39.50
2022-11-29T00:44:20.588Z,39.40
2022-11-29T00:46:49.456Z,43.00
2022-11-29T00:49:17.832Z,40.10
2022-11-29T00:51:47.139Z,37.00
2022-11-29T00:54:15.645Z,40.70
2022-11-29T00:56:43.869Z,37.50
2022-11-29T00:59:11.850Z,45.80
2022-11-29T01:01:40.055Z,44.90
2022-11-29T01:04:08.189Z,41.70
2022-11-29T01:06:36.178Z,36.40
2022-11-29T01:09:05.114Z,40.00
2022-11-29T01:11:33.604Z,40.10
2022-11-29T01:14:03.380Z,39.20
2022-11-29T01:16:32.786Z,36.00
2022-11-29T01:19:01.146Z,39.30
2022-11-29T01:21:29.185Z,39.30
2022-11-29T01:23:57.244Z,37.10
2022-11-29T01:26:28.480Z,34.20
2022-11-29T01:28:58.922Z,32.60
2022-11-29T01:31:32.976Z,36.80
2022-11-29T01:34:04.271Z,34.70
2022-11-29T01:36:33.129Z,37.80
2022-11-29T01:39:03.652Z,31.50
2022-11-29T01:41:33.393Z,36.90
2022-11-29T01:44:13.583Z,35.60
2022-11-29T01:46:44.184Z,37.70
2022-11-29T01:49:21.263Z,35.30
2022-11-29T01:51:55.118Z,41.60
2022-11-29T01:54:23.193Z,37.30
2022-11-29T01:56:52.911Z,41.80
2022-11-29T01:59:25.944Z,38.90
2022-11-29T02:01:56.675Z,39.90
2022-11-29T02:04:24.823Z,43.80
2022-11-29T02:06:52.985Z,41.00
2022-11-29T02:09:23.202Z,37.30
2022-11-29T02:12:09.708Z,39.60
2022-11-29T02:14:49.879Z,34.40
2022-11-29T02:17:20.748Z,37.20
2022-11-29T02:20:17.081Z,47.70
2022-11-29T02:22:51.332Z,42.50
2022-11-29T02:25:35.912Z,45.30
2022-11-29T02:28:06.923Z,42.60
2022-11-29T02:31:02.522Z,41.90
2022-11-29T02:34:03.074Z,48.90
2022-11-29T02:36:47.683Z,52.00
2022-11-29T02:39:40.044Z,46.40
2022-11-29T02:42:28.639Z,44.40
2022-11-29T02:45:08.942Z,45.50
2022-11-29T02:47:44.323Z,44.30
2022-11-29T02:50:46.137Z,43.40
2022-11-29T02:53:34.082Z,41.40
2022-11-29T02:56:15.739Z,44.10
2022-11-29T02:59:17.901Z,47.40
2022-11-29T03:02:05.123Z,41.80
2022-11-29T03:04:50.885Z,43.50
2022-11-29T03:10:05.403Z,45.70
2022-11-29T03:12:47.634Z,39.50
2022-11-29T03:15:37.669Z,37.00
2022-11-29T03:18:27.714Z,36.40
2022-11-29T03:21:18.072Z,47.50
2022-11-29T03:23:54.219Z,53.60
2022-11-29T03:27:06.934Z,55.50
2022-11-29T03:29:51.135Z,49.80
2022-11-29T03:32:29.050Z,41.40
2022-11-29T03:35:11.940Z,48.40
2022-11-29T03:38:21.829Z,43.60
2022-11-29T03:41:08.193Z,42.70
2022-11-29T03:43:54.641Z,43.00
2022-11-29T03:46:29.705Z,41.60
2022-11-29T03:49:16.922Z,42.30
2022-11-29T03:51:48.143Z,41.20
2022-11-29T03:54:28.883Z,43.90
2022-11-29T03:56:57.422Z,42.00
2022-11-29T03:59:56.314Z,41.20
2022-11-29T04:02:36.279Z,42.10
2022-11-29T04:05:35.053Z,46.10
2022-11-29T04:08:18.678Z,37.60
2022-11-29T04:11:23.277Z,44.80
2022-11-29T04:14:22.951Z,56.10
2022-11-29T04:17:09.816Z,46.70
2022-11-29T04:19:59.695Z,47.50
2022-11-29T04:22:35.298Z,48.30
2022-11-29T04:25:41.157Z,40.30
2022-11-29T04:28:28.057Z,42.10
2022-11-29T04:31:14.515Z,40.20
2022-11-29T04:33:54.445Z,42.30
2022-11-29T04:36:28.423Z,42.20
2022-11-29T04:39:02.547Z,37.80
2022-11-29T04:41:49.743Z,44.40
2022-11-29T04:44:44.517Z,42.90
2022-11-29T04:47:38.940Z,34.30
2022-11-29T04:50:21.201Z,38.50
2022-11-29T04:53:01.531Z,34.50
2022-11-29T04:55:45.992Z,37.50
2022-11-29T04:58:28.535Z,41.50
2022-11-29T05:01:05.145Z,42.20
2022-11-29T05:03:45.762Z,42.00
2022-11-29T05:06:21.306Z,34.80
2022-11-29T05:08:49.321Z,44.60
2022-11-29T05:11:37.411Z,40.90
2022-11-29T05:14:27.462Z,44.00
2022-11-29T05:17:32.294Z,48.80
2022-11-29T05:20:36.057Z,51.70
2022-11-29T05:23:35.395Z,39.70
2022-11-29T05:26:16.629Z,54.10
2022-11-29T05:28:50.949Z,42.40
2022-11-29T05:31:19.267Z,50.90
2022-11-29T05:33:47.608Z,47.10
2022-11-29T05:36:48.984Z,42.60
2022-11-29T05:39:33.657Z,42.70
2022-11-29T05:42:23.957Z,42.60
2022-11-29T05:45:04.302Z,50.40
2022-11-29T05:47:52.439Z,36.80
2022-11-29T05:50:42.786Z,48.40
2022-11-29T05:54:08.511Z,46.30
2022-11-29T05:57:07.593Z,36.50
2022-11-29T05:59:38.935Z,41.30
2022-11-29T06:02:33.867Z,66.90
2022-11-29T06:05:13.796Z,43.20
2022-11-29T06:08:16.000Z,61.30
2022-11-29T06:11:13.961Z,80.10
2022-11-29T06:14:08.764Z,110.80
2022-11-29T06:16:46.019Z,111.00
2022-11-29T06:19:20.489Z,88.40
2022-11-29T06:22:07.675Z,108.20
2022-11-29T06:24:45.659Z,81.90
2022-11-29T06:27:43.121Z,82.70
2022-11-29T06:30:15.304Z,97.30
2022-11-29T06:32:55.814Z,92.80
2022-11-29T06:35:41.187Z,91.10
2022-11-29T06:38:21.662Z,75.30
2022-11-29T06:40:51.585Z,75.00
2022-11-29T06:43:20.316Z,76.50
2022-11-29T06:46:05.594Z,81.50
2022-11-29T06:51:25.092Z,59.90
2022-11-29T06:53:53.418Z,54.80
2022-11-29T06:56:33.650Z,60.60
2022-11-29T06:59:17.839Z,61.90
2022-11-29T07:01:58.754Z,59.80
2022-11-29T07:04:38.932Z,60.50
2022-11-29T07:07:20.096Z,57.00
2022-11-29T07:09:53.357Z,62.10
2022-11-29T07:12:22.297Z,67.10
2022-11-29T07:14:50.863Z,75.50
2022-11-29T07:17:25.283Z,52.10
2022-11-29T07:20:15.500Z,52.10
2022-11-29T07:22:46.836Z,48.70
2022-11-29T07:25:33.719Z,51.70
2022-11-29T07:28:23.955Z,53.50
2022-11-29T07:31:20.053Z,49.90
2022-11-29T07:33:54.914Z,50.50
2022-11-29T07:36:54.710Z,49.90
2022-11-29T07:40:05.029Z,46.10
2022-11-29T07:43:10.605Z,49.00
2022-11-29T07:45:40.478Z,49.40
2022-11-29T07:48:12.432Z,49.90
2022-11-29T07:50:41.425Z,45.00
2022-11-29T07:53:21.490Z,40.00
2022-11-29T07:55:51.029Z,55.80
2022-11-29T07:58:19.851Z,52.70
2022-11-29T08:00:48.565Z,61.80
2022-11-29T08:03:17.415Z,62.60
2022-11-29T08:05:47.633Z,54.50
2022-11-29T08:08:16.531Z,49.10
2022-11-29T08:10:45.092Z,59.00
2022-11-29T08:13:14.243Z,43.80
2022-11-29T08:15:46.850Z,73.10
2022-11-29T08:18:16.109Z,65.20
2022-11-29T08:20:46.576Z,68.10
2022-11-29T08:23:16.873Z,64.40
2022-11-29T08:25:46.447Z,73.00
2022-11-29T08:28:14.895Z,59.00
2022-11-29T08:30:43.272Z,80.20
2022-11-29T08:33:11.566Z,91.00
2022-11-29T08:35:40.159Z,86.30
2022-11-29T08:38:08.851Z,79.30
2022-11-29T08:40:37.231Z,92.80
2022-11-29T08:43:05.693Z,107.50
2022-11-29T08:45:34.128Z,94.70
2022-11-29T08:48:02.763Z,85.70
2022-11-29T08:50:31.384Z,86.40
2022-11-29T08:53:18.351Z,79.70
2022-11-29T08:55:47.062Z,76.50
2022-11-29T08:58:16.546Z,91.50
2022-11-29T09:00:48.875Z,93.20
2022-11-29T09:03:36.467Z,82.10
2022-11-29T09:06:12.493Z,105.30
2022-11-29T09:08:45.926Z,84.20
2022-11-29T09:11:17.262Z,92.80
2022-11-29T09:13:49.155Z,93.90
2022-11-29T09:16:20.809Z,99.50
2022-11-29T09:18:52.120Z,113.90
2022-11-29T09:21:20.863Z,121.90
2022-11-29T09:23:49.197Z,97.30
2022-11-29T09:26:19.667Z,90.30
2022-11-29T09:28:48.309Z,93.80
2022-11-29T09:31:17.805Z,108.20
2022-11-29T09:33:47.416Z,101.70
2022-11-29T09:36:16.530Z,84.10
2022-11-29T09:38:45.070Z,82.50
2022-11-29T09:41:16.563Z,97.00
2022-11-29T09:44:19.198Z,67.50
2022-11-29T09:47:25.915Z,85.10
2022-11-29T09:50:31.488Z,78.10
2022-11-29T09:53:35.498Z,71.30
2022-11-29T09:56:22.352Z,79.70
2022-11-29T09:58:59.083Z,60.90
2022-11-29T10:01:32.664Z,61.40
2022-11-29T10:04:05.368Z,61.60
2022-11-29T10:06:43.567Z,67.10
2022-11-29T10:09:30.867Z,67.50
2022-11-29T10:12:17.193Z,82.40
2022-11-29T10:15:02.450Z,57.70
2022-11-29T10:17:42.006Z,60.30
2022-11-29T10:20:17.293Z,72.20
2022-11-29T10:22:55.556Z,52.70
2022-11-29T10:25:48.263Z,40.80
2022-11-29T10:28:21.408Z,38.50
2022-11-29T10:30:54.441Z,38.10
2022-11-29T10:33:30.276Z,31.80
2022-11-29T10:36:04.622Z,32.20
2022-11-29T10:38:33.268Z,36.60
2022-11-29T10:41:09.618Z,36.30
2022-11-29T10:43:38.540Z,29.80
2022-11-29T10:46:16.513Z,24.50
2022-11-29T10:48:45.153Z,38.10
2022-11-29T10:51:18.297Z,34.40
2022-11-29T10:53:49.692Z,41.30
2022-11-29T10:56:30.521Z,35.50
2022-11-29T10:59:08.160Z,24.90
2022-11-29T11:01:41.188Z,43.20
2022-11-29T11:04:25.610Z,19.60
2022-11-29T11:06:57.132Z,35.50
2022-11-29T11:09:32.760Z,37.80
2022-11-29T11:12:27.235Z,27.70
2022-11-29T11:15:17.007Z,34.70
2022-11-29T11:18:00.901Z,28.30
2022-11-29T11:20:31.697Z,34.40
2022-11-29T11:23:06.477Z,36.20
2022-11-29T11:25:39.861Z,33.80
2022-11-29T11:28:51.676Z,32.20
2022-11-29T11:31:34.770Z,28.40
2022-11-29T11:34:27.031Z,30.90
2022-11-29T11:37:16.598Z,17.90
2022-11-29T11:39:47.493Z,13.60
2022-11-29T11:42:38.669Z,19.40
2022-11-29T11:45:31.455Z,14.30
2022-11-29T11:48:03.706Z,14.90
2022-11-29T11:50:37.925Z,17.40
2022-11-29T11:53:28.649Z,12.70
2022-11-29T11:56:03.508Z,15.50
2022-11-29T11:58:33.371Z,18.20
2022-11-29T12:01:25.338Z,13.20
2022-11-29T12:04:19.427Z,14.20
2022-11-29T12:06:54.131Z,16.40
2022-11-29T12:09:49.369Z,15.70
2022-11-29T12:12:33.062Z,15.60
2022-11-29T12:15:07.289Z,15.90
2022-11-29T12:17:44.622Z,14.50
2022-11-29T12:20:31.359Z,13.20
2022-11-29T12:23:11.934Z,17.10
2022-11-29T12:25:48.528Z,19.30
2022-11-29T12:28:20.823Z,17.10
2022-11-29T12:30:59.376Z,17.20
2022-11-29T12:33:42.393Z,15.50
2022-11-29T12:36:24.790Z,17.40
2022-11-29T12:39:34.584Z,18.30
2022-11-29T12:42:05.873Z,19.60
2022-11-29T12:45:03.584Z,22.50
2022-11-29T12:48:16.698Z,14.40
2022-11-29T12:51:12.776Z,15.20
2022-11-29T12:53:46.906Z,21.50
2022-11-29T12:56:32.366Z,16.00
2022-11-29T12:59:39.686Z,17.20
2022-11-29T13:02:35.040Z,16.00
2022-11-29T13:05:19.158Z,17.10
2022-11-29T13:08:10.775Z,17.90
2022-11-29T13:10:54.770Z,17.80
2022-11-29T13:13:52.378Z,15.40
2022-11-29T13:16:36.433Z,17.00
2022-11-29T13:19:21.487Z,14.60
2022-11-29T13:21:59.540Z,14.80
2022-11-29T13:25:19.333Z,14.90
2022-11-29T13:28:05.571Z,15.30
2022-11-29T13:30:35.946Z,21.90
2022-11-29T13:33:25.256Z,19.50
2022-11-29T13:36:16.215Z,17.70
2022-11-29T13:38:57.005Z,18.80
2022-11-29T13:41:43.608Z,18.80
2022-11-29T13:44:20.602Z,13.40
2022-11-29T13:47:07.505Z,16.20
2022-11-29T13:49:54.973Z,12.90
2022-11-29T13:52:48.955Z,13.70
2022-11-29T13:55:29.740Z,12.90
2022-11-29T13:58:30.926Z,13.10
2022-11-29T14:01:03.268Z,14.30
2022-11-29T14:04:03.149Z,13.70
2022-11-29T14:06:33.526Z,16.80
2022-11-29T14:09:19.661Z,17.40
2022-11-29T14:11:59.150Z,15.90
2022-11-29T14:14:51.873Z,16.20
2022-11-29T14:17:44.736Z,16.20
2022-11-29T14:20:25.349Z,20.00
2022-11-29T14:23:02.771Z,18.10
2022-11-29T14:28:21.936Z,21.50
2022-11-29T14:31:03.039Z,27.80
2022-11-29T14:33:47.100Z,23.00
2022-11-29T14:36:15.488Z,28.20
2022-11-29T14:38:53.393Z,18.90
2022-11-29T14:41:33.311Z,21.10
2022-11-29T14:44:28.361Z,24.20
2022-11-29T14:47:38.506Z,20.30
2022-11-29T14:50:10.985Z,19.60
2022-11-29T14:52:50.228Z,26.60
2022-11-29T14:55:24.799Z,20.60
2022-11-29T14:58:04.109Z,23.90
2022-11-29T15:00:48.086Z,21.20
2022-11-29T15:03:16.756Z,30.00
2022-11-29T15:05:51.104Z,29.00
2022-11-29T15:08:32.479Z,25.50
2022-11-29T15:11:19.701Z,20.20
2022-11-29T15:14:16.444Z,22.80
2022-11-29T15:16:45.222Z,26.60
2022-11-29T15:19:41.482Z,25.90
2022-11-29T15:22:19.032Z,27.00
2022-11-29T15:25:06.019Z,20.20
2022-11-29T15:27:39.856Z,23.80
2022-11-29T15:30:28.019Z,22.30
2022-11-29T15:32:58.707Z,21.10
2022-11-29T15:35:28.018Z,22.30
2022-11-29T15:37:57.070Z,20.30
2022-11-29T15:40:37.539Z,25.50
2022-11-29T15:43:19.726Z,27.20
2022-11-29T15:45:54.944Z,24.50
2022-11-29T15:48:28.893Z,29.30
2022-11-29T15:51:31.168Z,26.00
2022-11-29T15:54:13.778Z,27.30
2022-11-29T15:56:56.884Z,25.80
2022-11-29T15:59:47.557Z,25.00
2022-11-29T16:02:23.566Z,24.00
2022-11-29T16:05:14.088Z,30.20
2022-11-29T16:07:44.440Z,25.70
2022-11-29T16:10:17.175Z,23.50
2022-11-29T16:13:35.466Z,37.60
2022-11-29T16:16:21.299Z,41.60
2022-11-29T16:18:51.398Z,30.80
2022-11-29T16:21:31.196Z,34.90
2022-11-29T16:24:13.982Z,45.50
2022-11-29T16:26:46.231Z,37.70
2022-11-29T16:29:24.770Z,34.90
2022-11-29T16:31:54.113Z,36.30
2022-11-29T16:34:34.064Z,41.30
2022-11-29T16:37:06.689Z,34.40
2022-11-29T16:39:38.628Z,39.20
2022-11-29T16:42:07.707Z,50.60
2022-11-29T16:44:42.783Z,57.70
2022-11-29T16:47:22.450Z,58.00
2022-11-29T16:50:16.674Z,54.90
2022-11-29T16:52:45.714Z,57.70
2022-11-29T16:55:16.997Z,68.10
2022-11-29T16:57:46.834Z,50.90
2022-11-29T17:00:31.195Z,52.20
2022-11-29T17:03:00.087Z,48.60
2022-11-29T17:05:28.864Z,37.60
2022-11-29T17:07:58.665Z,52.40
2022-11-29T17:10:27.640Z,60.20
2022-11-29T17:12:56.020Z,51.60
2022-11-29T17:15:24.802Z,55.10
2022-11-29T17:17:53.768Z,49.60
2022-11-29T17:20:21.964Z,49.20
2022-11-29T17:22:50.243Z,45.80
2022-11-29T17:25:18.498Z,44.20
2022-11-29T17:27:46.922Z,47.60
2022-11-29T17:30:15.706Z,46.80
2022-11-29T17:32:43.885Z,42.30
2022-11-29T17:35:12.272Z,48.90
2022-11-29T17:37:40.505Z,53.20
2022-11-29T17:40:09.108Z,49.20
2022-11-29T17:42:37.485Z,39.30
2022-11-29T17:45:06.246Z,39.80
2022-11-29T17:47:34.237Z,42.00
2022-11-29T17:50:02.608Z,43.40
2022-11-29T17:52:30.928Z,50.60
2022-11-29T17:54:59.499Z,54.20
2022-11-29T17:57:27.570Z,47.60
2022-11-29T17:59:55.875Z,48.60
2022-11-29T18:02:24.434Z,40.40
2022-11-29T18:04:52.758Z,39.70
2022-11-29T18:07:21.055Z,38.50
2022-11-29T18:09:49.471Z,43.30
2022-11-29T18:12:18.165Z,43.90
2022-11-29T18:14:46.328Z,37.80
2022-11-29T18:17:14.568Z,45.40
2022-11-29T18:19:43.122Z,49.60
2022-11-29T18:22:11.727Z,47.00
2022-11-29T18:24:43.610Z,43.50
2022-11-29T18:27:12.425Z,52.00
2022-11-29T18:29:40.791Z,67.80
2022-11-29T18:32:08.835Z,61.90
2022-11-29T18:34:36.943Z,61.90
2022-11-29T18:37:05.411Z,68.20
2022-11-29T18:39:33.623Z,53.70
2022-11-29T18:42:01.914Z,60.90
2022-11-29T18:44:30.474Z,67.50
2022-11-29T18:46:58.547Z,75.60
2022-11-29T18:49:26.683Z,81.90
2022-11-29T18:51:55.095Z,80.40
2022-11-29T18:54:24.671Z,74.40
2022-11-29T18:56:53.032Z,73.20
2022-11-29T18:59:23.205Z,70.70
2022-11-29T19:01:51.888Z,50.40
2022-11-29T19:04:21.194Z,52.90
2022-11-29T19:06:49.998Z,48.10
2022-11-29T19:09:21.586Z,62.80
2022-11-29T19:11:51.292Z,72.70
2022-11-29T19:14:20.264Z,83.60
2022-11-29T19:16:50.001Z,97.40
2022-11-29T19:19:21.129Z,89.20
2022-11-29T19:21:49.532Z,69.20
2022-11-29T19:24:18.652Z,74.90
2022-11-29T19:26:49.854Z,98.00
2022-11-29T19:29:18.202Z,97.90
2022-11-29T19:31:46.571Z,79.50
2022-11-29T19:34:14.695Z,68.70
2022-11-29T19:36:44.152Z,63.60
2022-11-29T19:39:15.755Z,58.90
2022-11-29T19:41:46.842Z,49.50
2022-11-29T19:44:15.525Z,54.30
2022-11-29T19:46:47.194Z,61.00
2022-11-29T19:49:15.289Z,55.90
2022-11-29T19:51:43.799Z,50.80
2022-11-29T19:54:13.654Z,58.00
2022-11-29T19:56:42.285Z,44.50
2022-11-29T19:59:10.373Z,54.20
2022-11-29T20:01:42.913Z,62.40
2022-11-29T20:04:13.761Z,58.40
2022-11-29T20:06:42.152Z,47.40
2022-11-29T20:09:11.401Z,44.90
2022-11-29T20:11:39.679Z,49.40
2022-11-29T20:14:08.413Z,49.30
2022-11-29T20:16:39.099Z,43.60
2022-11-29T20:19:13.871Z,44.70
2022-11-29T20:21:46.031Z,42.40
2022-11-29T20:24:15.837Z,48.00
2022-11-29T20:26:47.001Z,47.70
2022-11-29T20:29:16.118Z,52.30
2022-11-29T20:31:50.026Z,47.50
2022-11-29T20:34:20.272Z,48.80
2022-11-29T20:37:22.730Z,52.80
2022-11-29T20:40:00.233Z,63.30
2022-11-29T20:42:52.772Z,52.10
2022-11-29T20:45:21.492Z,56.40
2022-11-29T20:48:02.439Z,53.20
2022-11-29T20:50:32.243Z,55.60
2022-11-29T20:53:33.648Z,56.90
2022-11-29T20:56:02.910Z,56.50
2022-11-29T20:58:31.199Z,60.20
2022-11-29T21:01:00.252Z,56.70
2022-11-29T21:03:29.723Z,55.30
2022-11-29T21:06:01.883Z,52.50
2022-11-29T21:08:30.256Z,59.50
2022-11-29T21:11:07.536Z,58.30
2022-11-29T21:13:36.375Z,54.30
2022-11-29T21:16:04.840Z,50.70
2022-11-29T21:18:34.314Z,54.20
2022-11-29T21:21:25.080Z,49.60
2022-11-29T21:24:14.562Z,52.20
2022-11-29T21:26:50.752Z,49.60
2022-11-29T21:29:21.802Z,47.60
2022-11-29T21:31:52.980Z,45.20
2022-11-29T21:34:22.257Z,52.50
2022-11-29T21:36:56.567Z,48.30
2022-11-29T21:39:31.018Z,48.10
2022-11-29T21:41:59.151Z,56.20
2022-11-29T21:44:27.198Z,54.40
2022-11-29T21:46:55.142Z,51.80
2022-11-29T21:49:23.544Z,51.80
2022-11-29T21:51:51.544Z,52.70
2022-11-29T21:54:19.642Z,55.80
2022-11-29T21:56:47.861Z,50.80
2022-11-29T21:59:15.908Z,45.90
2022-11-29T22:01:44.023Z,50.10
2022-11-29T22:04:12.254Z,59.40
2022-11-29T22:06:40.324Z,71.50
2022-11-29T22:09:08.552Z,58.40
2022-11-29T22:11:36.938Z,66.30
2022-11-29T22:14:15.395Z,70.90
2022-11-29T22:16:54.614Z,59.50
2022-11-29T22:19:25.295Z,78.00
2022-11-29T22:21:58.928Z,64.10
2022-11-29T22:24:29.245Z,59.00
2022-11-29T22:26:57.618Z,70.10
2022-11-29T22:29:26.265Z,71.40
2022-11-29T22:31:56.529Z,67.10
2022-11-29T22:34:25.415Z,69.80
2022-11-29T22:36:53.902Z,83.50
2022-11-29T22:39:24.263Z,75.10
2022-11-29T22:41:54.728Z,83.10
2022-11-29T22:44:24.022Z,77.30
2022-11-29T22:46:52.674Z,80.90
2022-11-29T22:49:20.653Z,88.60
2022-11-29T22:51:48.738Z,91.20
2022-11-29T22:54:17.546Z,73.80
2022-11-29T22:56:45.915Z,78.30
2022-11-29T22:59:14.741Z,79.00
2022-11-29T23:01:43.258Z,74.40
2022-11-29T23:04:12.396Z,87.10
2022-11-29T23:06:43.522Z,83.70
2022-11-29T23:09:19.074Z,84.00
2022-11-29T23:11:52.263Z,82.00
2022-11-29T23:14:22.328Z,80.40
2022-11-29T23:16:50.933Z,63.80
2022-11-29T23:19:19.659Z,67.80
2022-11-29T23:21:48.079Z,67.60
2022-11-29T23:24:16.091Z,64.10
2022-11-29T23:26:47.451Z,66.70
2022-11-29T23:29:18.226Z,69.30
2022-11-29T23:31:47.008Z,67.00
2022-11-29T23:34:15.545Z,64.80
2022-11-29T23:36:47.015Z,62.20
2022-11-29T23:39:19.418Z,64.90
2022-11-29T23:41:47.448Z,62.40
2022-11-29T23:44:15.543Z,65.80
2022-11-29T23:46:43.604Z,66.30
2022-11-29T23:49:11.644Z,61.90
2022-11-29T23:51:39.558Z,56.30
2022-11-29T23:54:07.657Z,56.90
2022-11-29T23:56:35.768Z,53.80
2022-11-29T23:59:04.244Z,47.40
